createdAt,value
2018-02-06T00:00:23.234Z,1008.93
2018-02-06T00:01:23.164Z,1008.94
2018-02-06T00:02:23.094Z,1008.86
2018-02-06T00:03:23.024Z,1008.88
2018-02-06T00:04:22.955Z,1008.88
2018-02-06T00:05:22.884Z,1008.86
2018-02-06T00:06:22.814Z,1008.83
2018-02-06T00:07:22.745Z,1008.87
2018-02-06T00:08:22.675Z,1008.85
2018-02-06T00:09:22.605Z,1008.83
2018-02-06T00:10:22.535Z,1008.81
2018-02-06T00:11:22.466Z,1008.81
2018-02-06T00:12:22.396Z,1008.74
2018-02-06T00:13:22.328Z,1008.81
2018-02-06T00:14:22.255Z,1008.78
2018-02-06T00:15:22.186Z,1008.70
2018-02-06T00:16:22.118Z,1008.63
2018-02-06T00:17:22.046Z,1008.60
2018-02-06T00:18:22.020Z,1008.60
2018-02-06T00:19:21.907Z,1008.58
2018-02-06T00:20:21.838Z,1008.60
2018-02-06T00:21:21.767Z,1008.64
2018-02-06T00:22:21.697Z,1008.59
2018-02-06T00:23:21.630Z,1008.59
2018-02-06T00:24:21.558Z,1008.52
2018-02-06T00:25:21.487Z,1008.51
2018-02-06T00:26:21.417Z,1008.52
2018-02-06T00:27:21.347Z,1008.45
2018-02-06T00:28:21.278Z,1008.41
2018-02-06T00:29:21.208Z,1008.39
2018-02-06T00:30:21.139Z,1008.33
2018-02-06T00:31:21.068Z,1008.33
2018-02-06T00:32:20.998Z,1008.34
2018-02-06T00:33:20.930Z,1008.34
2018-02-06T00:34:20.858Z,1008.33
2018-02-06T00:35:20.789Z,1008.34
2018-02-06T00:36:20.718Z,1008.34
2018-02-06T00:37:20.647Z,1008.32
2018-02-06T00:38:20.579Z,1008.32
2018-02-06T00:39:20.508Z,1008.27
2018-02-06T00:40:20.438Z,1008.27
2018-02-06T00:41:20.369Z,1008.27
2018-02-06T00:42:20.298Z,1008.24
2018-02-06T00:43:20.228Z,1008.26
2018-02-06T00:44:20.161Z,1008.21
2018-02-06T00:45:20.090Z,1008.17
2018-02-06T00:46:20.019Z,1008.13
2018-02-06T00:47:19.948Z,1008.15
2018-02-06T00:48:19.879Z,1008.11
2018-02-06T00:49:19.809Z,1008.09
2018-02-06T00:50:19.740Z,1008.11
2018-02-06T00:51:19.668Z,1008.19
2018-02-06T00:52:19.598Z,1008.21
2018-02-06T00:53:19.529Z,1008.23
2018-02-06T00:54:19.459Z,1008.24
2018-02-06T00:55:19.389Z,1008.21
2018-02-06T00:56:19.319Z,1008.22
2018-02-06T00:57:19.249Z,1008.14
2018-02-06T00:58:19.179Z,1008.12
2018-02-06T00:59:19.108Z,1008.11
2018-02-06T01:00:19.040Z,1008.11
2018-02-06T01:01:18.969Z,1008.07
2018-02-06T01:02:18.900Z,1008.06
2018-02-06T01:03:18.830Z,1008.05
2018-02-06T01:04:18.765Z,1008.04
2018-02-06T01:05:18.689Z,1008.03
2018-02-06T01:06:18.621Z,1008.01
2018-02-06T01:07:18.552Z,1008.00
2018-02-06T01:08:18.482Z,1007.98
2018-02-06T01:09:18.413Z,1007.93
2018-02-06T01:10:18.344Z,1007.87
2018-02-06T01:11:18.273Z,1007.83
2018-02-06T01:12:18.203Z,1007.76
2018-02-06T01:13:18.133Z,1007.75
2018-02-06T01:14:18.064Z,1007.74
2018-02-06T01:15:17.994Z,1007.78
2018-02-06T01:16:17.924Z,1007.74
2018-02-06T01:17:17.855Z,1007.73
2018-02-06T01:18:17.786Z,1007.73
2018-02-06T01:19:17.720Z,1007.71
2018-02-06T01:20:17.646Z,1007.68
2018-02-06T01:21:17.577Z,1007.70
2018-02-06T01:22:17.507Z,1007.64
2018-02-06T01:23:17.437Z,1007.67
2018-02-06T01:24:17.369Z,1007.68
2018-02-06T01:25:17.296Z,1007.71
2018-02-06T01:26:17.228Z,1007.72
2018-02-06T01:27:17.160Z,1007.72
2018-02-06T01:28:17.095Z,1007.74
2018-02-06T01:29:17.019Z,1007.74
2018-02-06T01:30:16.949Z,1007.74
2018-02-06T01:31:16.881Z,1007.70
2018-02-06T01:32:16.811Z,1007.69
2018-02-06T01:33:16.741Z,1007.67
2018-02-06T01:34:16.673Z,1007.64
2018-02-06T01:35:16.606Z,1007.62
2018-02-06T01:36:16.533Z,1007.58
2018-02-06T01:37:16.462Z,1007.56
2018-02-06T01:38:16.393Z,1007.55
2018-02-06T01:39:16.323Z,1007.50
2018-02-06T01:40:16.254Z,1007.48
2018-02-06T01:41:16.184Z,1007.42
2018-02-06T01:42:16.116Z,1007.46
2018-02-06T01:43:16.046Z,1007.42
2018-02-06T01:44:15.978Z,1007.37
2018-02-06T01:45:15.906Z,1007.36
2018-02-06T01:46:15.837Z,1007.30
2018-02-06T01:47:15.768Z,1007.31
2018-02-06T01:48:15.699Z,1007.24
2018-02-06T01:49:15.627Z,1007.26
2018-02-06T01:50:15.557Z,1007.22
2018-02-06T01:51:15.489Z,1007.19
2018-02-06T01:52:15.421Z,1007.19
2018-02-06T01:53:15.351Z,1007.16
2018-02-06T01:54:15.279Z,1007.12
2018-02-06T01:55:15.213Z,1007.15
2018-02-06T01:56:15.143Z,1007.14
2018-02-06T01:57:15.070Z,1007.17
2018-02-06T01:58:15.003Z,1007.19
2018-02-06T01:59:14.931Z,1007.19
2018-02-06T02:00:14.862Z,1007.17
2018-02-06T02:01:14.791Z,1007.18
2018-02-06T02:02:14.724Z,1007.15
2018-02-06T02:03:14.652Z,1007.16
2018-02-06T02:04:14.582Z,1007.13
2018-02-06T02:05:14.513Z,1007.11
2018-02-06T04:38:31.397Z,1005.56
2018-02-06T04:39:31.327Z,1005.57
2018-02-06T04:40:31.257Z,1005.56
2018-02-06T04:41:31.187Z,1005.50
2018-02-06T04:42:31.118Z,1005.53
2018-02-06T04:43:31.047Z,1005.50
2018-02-06T04:44:30.977Z,1005.45
2018-02-06T04:45:30.909Z,1005.43
2018-02-06T04:46:30.838Z,1005.47
2018-02-06T04:47:30.769Z,1005.45
2018-02-06T04:48:30.700Z,1005.46
2018-02-06T04:49:30.628Z,1005.46
2018-02-06T04:50:30.561Z,1005.47
2018-02-06T04:51:30.490Z,1005.43
2018-02-06T04:52:30.421Z,1005.42
2018-02-06T04:53:30.351Z,1005.46
2018-02-06T04:54:30.283Z,1005.44
2018-02-06T04:55:30.211Z,1005.49
2018-02-06T04:56:30.141Z,1005.50
2018-02-06T04:57:30.071Z,1005.45
2018-02-06T04:58:30.032Z,1005.48
2018-02-06T04:59:29.934Z,1005.44
2018-02-06T05:00:29.862Z,1005.39
2018-02-06T05:01:29.793Z,1005.41
2018-02-06T05:02:29.724Z,1005.39
2018-02-06T05:03:29.653Z,1005.42
2018-02-06T05:04:29.583Z,1005.46
2018-02-06T05:05:29.514Z,1005.48
2018-02-06T05:06:29.445Z,1005.46
2018-02-06T05:07:29.376Z,1005.44
2018-02-06T05:08:29.305Z,1005.40
2018-02-06T05:09:29.235Z,1005.32
2018-02-06T05:10:29.166Z,1005.33
2018-02-06T05:11:29.099Z,1005.32
2018-02-06T05:12:29.026Z,1005.34
2018-02-06T05:13:28.957Z,1005.40
2018-02-06T05:14:28.887Z,1005.35
2018-02-06T05:15:28.817Z,1005.39
2018-02-06T05:16:28.747Z,1005.32
2018-02-06T05:17:28.676Z,1005.27
2018-02-06T05:18:28.607Z,1005.18
2018-02-06T05:19:28.538Z,1005.22
2018-02-06T05:20:28.471Z,1005.20
2018-02-06T05:21:28.399Z,1005.21
2018-02-06T05:22:28.330Z,1005.26
2018-02-06T05:23:28.259Z,1005.24
2018-02-06T05:24:28.189Z,1005.24
2018-02-06T05:25:28.119Z,1005.21
2018-02-06T05:26:28.051Z,1005.17
2018-02-06T05:27:27.982Z,1005.17
2018-02-06T05:28:27.940Z,1005.19
2018-02-06T05:29:27.840Z,1005.13
2018-02-06T05:30:27.796Z,1005.13
2018-02-06T05:31:27.702Z,1005.15
2018-02-06T05:32:27.630Z,1005.09
2018-02-06T05:33:27.562Z,1005.05
2018-02-06T05:34:27.492Z,1005.03
2018-02-06T05:35:27.421Z,1005.02
2018-02-06T05:36:27.352Z,1005.05
2018-02-06T05:37:27.282Z,1005.01
2018-02-06T05:38:27.212Z,1004.99
2018-02-06T05:39:27.143Z,1004.99
2018-02-06T05:40:27.074Z,1004.96
2018-02-06T05:41:27.002Z,1004.95
2018-02-06T05:42:26.936Z,1004.93
2018-02-06T05:43:26.864Z,1004.92
2018-02-06T05:44:26.794Z,1004.89
2018-02-06T05:45:26.724Z,1004.94
2018-02-06T05:46:26.654Z,1004.88
2018-02-06T05:47:26.608Z,1004.83
2018-02-06T05:48:26.515Z,1004.84
2018-02-06T05:49:26.447Z,1004.83
2018-02-06T05:50:26.376Z,1004.84
2018-02-06T05:51:26.306Z,1004.83
2018-02-06T05:52:26.235Z,1004.76
2018-02-06T05:53:26.166Z,1004.79
2018-02-06T05:54:26.096Z,1004.79
2018-02-06T05:55:26.028Z,1004.74
2018-02-06T05:56:25.956Z,1004.78
2018-02-06T05:57:25.888Z,1004.74
2018-02-06T05:58:25.817Z,1004.73
2018-02-06T05:59:25.748Z,1004.74
2018-02-06T06:00:25.681Z,1004.73
2018-02-06T06:01:25.607Z,1004.71
2018-02-06T06:02:25.538Z,1004.67
2018-02-06T06:03:25.469Z,1004.71
2018-02-06T06:04:25.398Z,1004.68
2018-02-06T06:05:25.330Z,1004.69
2018-02-06T06:06:25.259Z,1004.71
2018-02-06T06:07:25.189Z,1004.73
2018-02-06T06:08:25.118Z,1004.68
2018-02-06T06:09:25.049Z,1004.65
2018-02-06T06:10:24.979Z,1004.68
2018-02-06T06:11:24.910Z,1004.64
2018-02-06T06:12:24.840Z,1004.61
2018-02-06T06:13:24.771Z,1004.61
2018-02-06T06:14:24.702Z,1004.58
2018-02-06T06:15:24.632Z,1004.55
2018-02-06T06:16:24.561Z,1004.58
2018-02-06T06:17:24.490Z,1004.52
2018-02-06T06:18:24.422Z,1004.58
2018-02-06T06:19:24.358Z,1004.58
2018-02-06T06:20:24.282Z,1004.53
2018-02-06T06:21:24.212Z,1004.56
2018-02-06T06:22:24.142Z,1004.52
2018-02-06T06:23:24.073Z,1004.51
2018-02-06T06:24:24.002Z,1004.52
2018-02-06T06:25:23.941Z,1004.49
2018-02-06T06:26:23.864Z,1004.53
2018-02-06T06:27:23.793Z,1004.50
2018-02-06T06:28:23.725Z,1004.55
2018-02-06T06:29:23.654Z,1004.54
2018-02-06T06:30:23.584Z,1004.51
2018-02-06T06:31:23.514Z,1004.49
2018-02-06T06:32:23.444Z,1004.53
2018-02-06T06:33:23.376Z,1004.52
2018-02-06T06:34:23.305Z,1004.52
2018-02-06T06:35:23.236Z,1004.45
2018-02-06T06:36:23.166Z,1004.51
2018-02-06T06:37:23.095Z,1004.44
2018-02-06T06:38:23.026Z,1004.44
2018-02-06T06:39:22.962Z,1004.48
2018-02-06T06:40:22.887Z,1004.49
2018-02-06T06:41:22.816Z,1004.46
2018-02-06T06:42:22.745Z,1004.47
2018-02-06T06:43:22.676Z,1004.42
2018-02-06T06:44:22.607Z,1004.39
2018-02-06T06:45:22.540Z,1004.45
2018-02-06T06:46:22.468Z,1004.44
2018-02-06T06:47:22.397Z,1004.44
2018-02-06T06:48:22.339Z,1004.44
2018-02-06T06:49:22.257Z,1004.42
2018-02-06T06:50:22.189Z,1004.38
2018-02-06T06:51:22.118Z,1004.38
2018-02-06T06:52:22.048Z,1004.38
2018-02-06T06:53:21.979Z,1004.42
2018-02-06T06:54:21.908Z,1004.40
2018-02-06T06:55:21.839Z,1004.42
2018-02-06T06:56:21.769Z,1004.37
2018-02-06T06:57:21.699Z,1004.38
2018-02-06T06:58:21.629Z,1004.31
2018-02-06T06:59:21.560Z,1004.37
2018-02-06T07:00:21.488Z,1004.34
2018-02-06T07:01:21.419Z,1004.36
2018-02-06T07:02:21.350Z,1004.36
2018-02-06T07:03:21.281Z,1004.40
2018-02-06T07:04:21.224Z,1004.43
2018-02-06T07:05:21.159Z,1004.44
2018-02-06T07:06:21.071Z,1004.41
2018-02-06T07:07:21.003Z,1004.43
2018-02-06T07:08:20.932Z,1004.36
2018-02-06T07:09:20.863Z,1004.38
2018-02-06T07:10:20.791Z,1004.35
2018-02-06T07:11:20.726Z,1004.38
2018-02-06T07:12:20.654Z,1004.37
2018-02-06T07:13:20.584Z,1004.39
2018-02-06T07:14:20.514Z,1004.36
2018-02-06T07:15:20.445Z,1004.37
2018-02-06T07:16:20.373Z,1004.35
2018-02-06T07:17:20.304Z,1004.36
2018-02-06T07:18:20.238Z,1004.39
2018-02-06T07:19:20.191Z,1004.38
2018-02-06T07:20:20.095Z,1004.38
2018-02-06T07:21:20.026Z,1004.39
2018-02-06T07:22:19.956Z,1004.39
2018-02-06T07:23:19.893Z,1004.42
2018-02-06T07:24:19.816Z,1004.43
2018-02-06T07:25:19.748Z,1004.44
2018-02-06T07:26:19.678Z,1004.43
2018-02-06T07:27:19.608Z,1004.38
2018-02-06T07:28:19.539Z,1004.40
2018-02-06T07:29:19.470Z,1004.36
2018-02-06T07:30:19.401Z,1004.39
2018-02-06T07:31:19.331Z,1004.32
2018-02-06T07:32:19.260Z,1004.32
2018-02-06T07:33:19.191Z,1004.31
2018-02-06T07:34:19.121Z,1004.31
2018-02-06T07:35:19.053Z,1004.33
2018-02-06T07:36:18.984Z,1004.33
2018-02-06T07:37:18.914Z,1004.30
2018-02-06T07:38:18.842Z,1004.30
2018-02-06T07:39:18.773Z,1004.31
2018-02-06T07:40:18.704Z,1004.29
2018-02-06T07:41:18.634Z,1004.29
2018-02-06T07:42:18.566Z,1004.28
2018-02-06T07:43:18.497Z,1004.25
2018-02-06T07:44:18.427Z,1004.24
2018-02-06T07:45:18.425Z,1004.27
2018-02-06T07:46:18.288Z,1004.29
2018-02-06T07:47:18.219Z,1004.27
2018-02-06T07:48:18.149Z,1004.32
2018-02-06T07:49:18.080Z,1004.31
2018-02-06T07:50:18.010Z,1004.29
2018-02-06T07:51:17.941Z,1004.30
2018-02-06T07:52:17.872Z,1004.30
2018-02-06T07:53:17.802Z,1004.28
2018-02-06T07:54:17.733Z,1004.26
2018-02-06T07:55:17.664Z,1004.30
2018-02-06T07:56:17.594Z,1004.30
2018-02-06T07:57:17.524Z,1004.36
2018-02-06T07:58:17.455Z,1004.33
2018-02-06T07:59:17.386Z,1004.35
2018-02-06T08:00:17.317Z,1004.32
2018-02-06T08:01:17.248Z,1004.33
2018-02-06T08:02:17.179Z,1004.37
2018-02-06T08:03:17.109Z,1004.34
2018-02-06T08:04:17.038Z,1004.30
2018-02-06T08:05:16.990Z,1004.33
2018-02-06T08:06:16.901Z,1004.33
2018-02-06T08:07:16.834Z,1004.34
2018-02-06T08:08:16.763Z,1004.33
2018-02-06T08:09:16.693Z,1004.35
2018-02-06T08:10:16.635Z,1004.34
2018-02-06T08:11:16.556Z,1004.34
2018-02-06T08:12:16.484Z,1004.30
2018-02-06T08:13:16.417Z,1004.27
2018-02-06T08:14:16.352Z,1004.27
2018-02-06T08:15:16.280Z,1004.26
2018-02-06T08:16:16.209Z,1004.26
2018-02-06T08:17:16.140Z,1004.26
2018-02-06T08:18:16.072Z,1004.23
2018-02-06T08:19:16.008Z,1004.24
2018-02-06T08:20:15.934Z,1004.25
2018-02-06T08:21:15.865Z,1004.21
2018-02-06T08:22:15.799Z,1004.21
2018-02-06T08:23:15.757Z,1004.22
2018-02-06T08:24:15.658Z,1004.21
2018-02-06T08:25:15.591Z,1004.21
2018-02-06T08:26:15.520Z,1004.22
2018-02-06T08:27:15.453Z,1004.22
2018-02-06T08:28:15.382Z,1004.20
2018-02-06T08:29:15.314Z,1004.21
2018-02-06T08:30:15.244Z,1004.18
2018-02-06T08:31:15.203Z,1004.15
2018-02-06T08:32:15.106Z,1004.17
2018-02-06T08:33:15.040Z,1004.12
2018-02-06T08:34:14.969Z,1004.10
2018-02-06T08:35:14.919Z,1004.08
2018-02-06T08:36:14.831Z,1004.11
2018-02-06T08:37:14.769Z,1004.11
2018-02-06T08:38:14.711Z,1004.12
2018-02-06T08:39:14.625Z,1004.14
2018-02-06T08:40:14.555Z,1004.17
2018-02-06T08:41:14.486Z,1004.22
2018-02-06T08:42:14.419Z,1004.21
2018-02-06T08:43:14.349Z,1004.21
2018-02-06T08:44:14.280Z,1004.23
2018-02-06T08:45:14.211Z,1004.16
2018-02-06T08:46:14.143Z,1004.19
2018-02-06T08:47:14.073Z,1004.10
2018-02-06T08:48:14.006Z,1004.15
2018-02-06T08:49:13.936Z,1004.18
2018-02-06T08:50:13.867Z,1004.18
2018-02-06T08:51:13.799Z,1004.15
2018-02-06T08:52:13.730Z,1004.14
2018-02-06T08:53:13.660Z,1004.18
2018-02-06T08:54:13.592Z,1004.13
2018-02-06T08:55:13.523Z,1004.13
2018-02-06T08:56:13.454Z,1004.15
2018-02-06T08:57:13.386Z,1004.07
2018-02-06T08:58:13.317Z,1004.09
2018-02-06T08:59:13.248Z,1004.12
2018-02-06T09:00:13.179Z,1004.06
2018-02-06T09:01:13.114Z,1004.08
2018-02-06T09:02:13.043Z,1004.06
2018-02-06T09:03:12.974Z,1004.08
2018-02-06T09:04:12.906Z,1004.05
2018-02-06T09:05:12.836Z,1004.08
2018-02-06T09:06:12.768Z,1004.05
2018-02-06T09:07:12.699Z,1004.03
2018-02-06T09:08:12.632Z,1004.03
2018-02-06T09:09:12.562Z,1004.00
2018-02-06T09:10:12.494Z,1004.05
2018-02-06T09:11:12.453Z,1004.03
2018-02-06T09:12:12.354Z,1004.01
2018-02-06T09:13:12.288Z,1004.11
2018-02-06T09:14:12.219Z,1004.14
2018-02-06T09:15:12.152Z,1004.13
2018-02-06T09:16:12.082Z,1004.17
2018-02-06T09:17:12.014Z,1004.19
2018-02-06T09:18:11.947Z,1004.19
2018-02-06T09:19:11.879Z,1004.20
2018-02-06T09:20:11.810Z,1004.17
2018-02-06T09:21:11.741Z,1004.19
2018-02-06T09:22:11.678Z,1004.14
2018-02-06T09:23:11.609Z,1004.14
2018-02-06T09:24:11.572Z,1004.15
2018-02-06T09:25:11.467Z,1004.14
2018-02-06T09:26:11.400Z,1004.18
2018-02-06T09:27:11.332Z,1004.20
2018-02-06T09:28:11.263Z,1004.15
2018-02-06T09:29:11.195Z,1004.17
2018-02-06T09:30:11.129Z,1004.12
2018-02-06T09:31:11.060Z,1004.18
2018-02-06T09:32:11.015Z,1004.18
2018-02-06T09:33:10.925Z,1004.26
2018-02-06T09:34:10.858Z,1004.23
2018-02-06T09:35:10.789Z,1004.22
2018-02-06T09:36:10.726Z,1004.23
2018-02-06T09:37:10.654Z,1004.20
2018-02-06T09:38:10.590Z,1004.17
2018-02-06T09:39:10.521Z,1004.17
2018-02-06T09:40:10.451Z,1004.17
2018-02-06T09:41:10.382Z,1004.18
2018-02-06T09:42:10.315Z,1004.14
2018-02-06T09:43:10.246Z,1004.15
2018-02-06T09:44:10.179Z,1004.11
2018-02-06T09:45:10.116Z,1004.09
2018-02-06T09:46:10.047Z,1004.05
2018-02-06T09:47:09.977Z,1004.03
2018-02-06T09:48:09.910Z,1004.02
2018-02-06T09:49:09.841Z,1004.06
2018-02-06T09:50:09.775Z,1004.04
2018-02-06T09:51:09.707Z,1004.00
2018-02-06T09:52:09.639Z,1004.04
2018-02-06T09:53:09.616Z,1004.07
2018-02-06T09:54:09.506Z,1004.10
2018-02-06T09:55:09.437Z,1004.08
2018-02-06T09:56:09.369Z,1004.11
2018-02-06T09:57:09.301Z,1004.09
2018-02-06T09:58:09.234Z,1004.09
2018-02-06T09:59:09.167Z,1004.03
2018-02-06T10:00:09.097Z,1004.03
2018-02-06T10:01:09.033Z,1003.99
2018-02-06T10:02:08.965Z,1004.03
2018-02-06T10:03:08.897Z,1003.99
2018-02-06T10:04:08.829Z,1004.02
2018-02-06T10:05:08.761Z,1004.07
2018-02-06T10:06:08.696Z,1004.04
2018-02-06T10:07:08.629Z,1004.01
2018-02-06T10:08:08.560Z,1004.04
2018-02-06T10:09:08.492Z,1004.02
2018-02-06T10:10:08.425Z,1004.03
2018-02-06T10:11:08.359Z,1004.03
2018-02-06T10:12:08.291Z,1004.01
2018-02-06T10:13:08.286Z,1004.05
2018-02-06T10:14:08.156Z,1004.07
2018-02-06T10:15:08.088Z,1004.07
2018-02-06T10:16:08.020Z,1004.04
2018-02-06T10:17:07.953Z,1004.02
2018-02-06T10:18:07.887Z,1004.01
2018-02-06T10:19:07.820Z,1004.03
2018-02-06T10:20:07.755Z,1004.03
2018-02-06T10:21:07.685Z,1003.95
2018-02-06T10:22:07.618Z,1003.95
2018-02-06T10:23:07.551Z,1003.96
2018-02-06T10:24:07.484Z,1003.96
2018-02-06T10:25:07.415Z,1003.93
2018-02-06T10:26:07.349Z,1003.94
2018-02-06T10:27:07.282Z,1003.92
2018-02-06T10:28:07.224Z,1003.89
2018-02-06T10:29:07.147Z,1003.85
2018-02-06T10:30:07.080Z,1003.86
2018-02-06T10:31:07.013Z,1003.82
2018-02-06T10:32:06.945Z,1003.82
2018-02-06T10:33:06.878Z,1003.83
2018-02-06T10:34:06.812Z,1003.80
2018-02-06T10:35:06.744Z,1003.80
2018-02-06T10:36:06.679Z,1003.73
2018-02-06T10:37:06.610Z,1003.69
2018-02-06T10:38:06.543Z,1003.66
2018-02-06T10:39:06.476Z,1003.62
2018-02-06T10:40:06.408Z,1003.65
2018-02-06T10:41:06.340Z,1003.64
2018-02-06T10:42:06.273Z,1003.64
2018-02-06T10:43:06.208Z,1003.67
2018-02-06T10:44:06.140Z,1003.62
2018-02-06T10:45:06.077Z,1003.65
2018-02-06T10:46:06.007Z,1003.59
2018-02-06T10:47:05.939Z,1003.54
2018-02-06T10:48:05.872Z,1003.52
2018-02-06T10:49:05.806Z,1003.53
2018-02-06T10:50:05.738Z,1003.55
2018-02-06T10:51:05.671Z,1003.56
2018-02-06T10:52:05.604Z,1003.51
2018-02-06T10:53:05.537Z,1003.55
2018-02-06T10:54:05.470Z,1003.58
2018-02-06T10:55:05.405Z,1003.56
2018-02-06T10:56:05.337Z,1003.58
2018-02-06T10:57:05.269Z,1003.55
2018-02-06T10:58:05.202Z,1003.58
2018-02-06T10:59:05.135Z,1003.47
2018-02-06T11:00:05.068Z,1003.42
2018-02-06T11:01:05.002Z,1003.46
2018-02-06T11:02:04.934Z,1003.41
2018-02-06T11:03:04.870Z,1003.43
2018-02-06T11:04:04.802Z,1003.47
2018-02-06T11:05:04.733Z,1003.49
2018-02-06T11:06:04.667Z,1003.45
2018-02-06T11:07:04.632Z,1003.47
2018-02-06T11:08:04.534Z,1003.41
2018-02-06T11:09:04.467Z,1003.36
2018-02-06T11:10:04.403Z,1003.37
2018-02-06T11:11:04.334Z,1003.38
2018-02-06T11:12:04.271Z,1003.35
2018-02-06T11:13:04.207Z,1003.32
2018-02-06T11:14:04.135Z,1003.31
2018-02-06T11:15:04.071Z,1003.26
2018-02-06T11:16:04.002Z,1003.26
2018-02-06T11:17:03.946Z,1003.22
2018-02-06T11:18:03.869Z,1003.10
2018-02-06T11:19:03.804Z,1003.13
2018-02-06T11:20:03.737Z,1003.10
2018-02-06T11:21:03.672Z,1003.15
2018-02-06T11:22:03.605Z,1003.21
2018-02-06T11:23:03.539Z,1003.21
2018-02-06T11:24:03.473Z,1003.24
2018-02-06T11:25:03.406Z,1003.23
2018-02-06T11:26:03.341Z,1003.23
2018-02-06T11:27:03.275Z,1003.25
2018-02-06T11:28:03.210Z,1003.14
2018-02-06T11:29:03.143Z,1003.16
2018-02-06T11:30:03.079Z,1003.05
2018-02-06T11:31:03.011Z,1003.01
2018-02-06T11:32:02.946Z,1003.05
2018-02-06T11:33:02.935Z,1003.06
2018-02-06T11:34:02.814Z,1003.10
2018-02-06T11:35:02.749Z,1003.11
2018-02-06T11:36:02.682Z,1003.10
2018-02-06T11:37:02.722Z,1003.12
2018-02-06T11:38:02.550Z,1003.13
2018-02-06T11:39:02.485Z,1003.11
2018-02-06T11:40:02.417Z,1002.98
2018-02-06T11:41:02.353Z,1003.00
2018-02-06T11:42:02.287Z,1003.01
2018-02-06T11:43:02.222Z,1002.97
2018-02-06T11:44:02.174Z,1002.93
2018-02-06T11:45:02.089Z,1002.89
2018-02-06T11:46:02.023Z,1002.79
2018-02-06T11:47:01.959Z,1002.72
2018-02-06T11:48:01.890Z,1002.66
2018-02-06T11:49:01.825Z,1002.68
2018-02-06T11:50:01.759Z,1002.61
2018-02-06T11:51:01.694Z,1002.61
2018-02-06T11:52:01.626Z,1002.64
2018-02-06T11:53:01.561Z,1002.62
2018-02-06T11:54:01.494Z,1002.64
2018-02-06T11:55:01.427Z,1002.65
2018-02-06T11:56:01.361Z,1002.59
2018-02-06T11:57:01.296Z,1002.62
2018-02-06T11:58:01.229Z,1002.63
2018-02-06T11:59:01.162Z,1002.60
2018-02-06T12:00:01.095Z,1002.58
2018-02-06T12:01:01.028Z,1002.59
2018-02-06T12:02:00.963Z,1002.57
2018-02-06T12:03:00.895Z,1002.64
2018-02-06T12:04:00.828Z,1002.59
2018-02-06T12:05:00.761Z,1002.64
2018-02-06T12:06:00.695Z,1002.74
2018-02-06T12:07:00.629Z,1002.69
2018-02-06T12:08:00.561Z,1002.68
2018-02-06T12:09:00.501Z,1002.67
2018-02-06T12:10:00.428Z,1002.64
2018-02-06T12:11:00.361Z,1002.70
2018-02-06T12:12:00.293Z,1002.75
2018-02-06T12:13:00.227Z,1002.75
2018-02-06T12:14:00.161Z,1002.75
2018-02-06T12:15:00.097Z,1002.66
2018-02-06T12:16:00.036Z,1002.66
2018-02-06T12:17:00.001Z,1002.66
2018-02-06T12:17:59.960Z,1002.68
2018-02-06T12:18:59.847Z,1002.70
2018-02-06T12:19:59.761Z,1002.71
2018-02-06T12:20:59.694Z,1002.66
2018-02-06T12:21:59.628Z,1002.64
2018-02-06T12:22:59.561Z,1002.60
2018-02-06T12:23:59.493Z,1002.63
2018-02-06T12:24:59.430Z,1002.60
2018-02-06T12:25:59.362Z,1002.57
2018-02-06T12:26:59.296Z,1002.59
2018-02-06T12:27:59.229Z,1002.57
2018-02-06T12:28:59.163Z,1002.59
2018-02-06T12:29:59.096Z,1002.63
2018-02-06T12:30:59.031Z,1002.61
2018-02-06T12:31:58.963Z,1002.72
2018-02-06T12:32:58.899Z,1002.68
2018-02-06T12:33:58.833Z,1002.64
2018-02-06T12:34:58.766Z,1002.61
2018-02-06T12:35:58.699Z,1002.52
2018-02-06T12:36:58.634Z,1002.45
2018-02-06T12:37:58.569Z,1002.34
2018-02-06T12:38:58.503Z,1002.24
2018-02-06T12:39:58.438Z,1002.20
2018-02-06T12:40:58.371Z,1002.20
2018-02-06T12:41:58.305Z,1002.22
2018-02-06T12:42:58.241Z,1002.24
2018-02-06T12:43:58.176Z,1002.17
2018-02-06T12:44:58.109Z,1002.19
2018-02-06T12:45:58.044Z,1002.20
2018-02-06T12:46:57.982Z,1002.15
2018-02-06T12:47:57.914Z,1002.11
2018-02-06T12:48:57.846Z,1002.11
2018-02-06T12:49:57.783Z,1002.05
2018-02-06T12:50:57.715Z,1002.04
2018-02-06T12:51:57.648Z,1001.96
2018-02-06T12:52:57.583Z,1001.94
2018-02-06T12:53:57.519Z,1001.91
2018-02-06T12:54:57.453Z,1001.91
2018-02-06T12:55:57.385Z,1001.92
2018-02-06T12:56:57.320Z,1001.90
2018-02-06T12:57:57.254Z,1001.96
2018-02-06T12:58:57.189Z,1001.90
2018-02-06T12:59:57.122Z,1001.92
2018-02-06T13:00:57.058Z,1001.89
2018-02-06T13:01:56.993Z,1001.83
2018-02-06T13:02:56.925Z,1001.84
2018-02-06T13:03:56.857Z,1001.86
2018-02-06T13:04:56.793Z,1001.84
2018-02-06T13:05:56.726Z,1001.85
2018-02-06T13:06:56.661Z,1001.83
2018-02-06T13:07:56.593Z,1001.84
2018-02-06T13:08:56.585Z,1001.79
2018-02-06T13:09:56.461Z,1001.80
2018-02-06T13:10:56.396Z,1001.80
2018-02-06T13:11:56.330Z,1001.82
2018-02-06T13:12:56.263Z,1001.78
2018-02-06T13:13:56.208Z,1001.74
2018-02-06T13:14:56.131Z,1001.74
2018-02-06T13:15:56.064Z,1001.74
2018-02-06T13:16:55.999Z,1001.73
2018-02-06T13:17:55.932Z,1001.74
2018-02-06T13:18:55.866Z,1001.76
2018-02-06T13:19:55.799Z,1001.75
2018-02-06T13:20:55.733Z,1001.74
2018-02-06T13:21:55.667Z,1001.75
2018-02-06T13:22:55.601Z,1001.71
2018-02-06T13:23:55.534Z,1001.69
2018-02-06T13:24:55.468Z,1001.70
2018-02-06T13:25:55.400Z,1001.72
2018-02-06T13:26:55.336Z,1001.67
2018-02-06T13:27:55.268Z,1001.63
2018-02-06T13:28:55.201Z,1001.69
2018-02-06T13:29:55.134Z,1001.67
2018-02-06T13:30:55.069Z,1001.73
2018-02-06T13:31:55.012Z,1001.75
2018-02-06T13:32:54.935Z,1001.74
2018-02-06T13:33:54.870Z,1001.70
2018-02-06T13:34:54.803Z,1001.70
2018-02-06T13:35:54.735Z,1001.68
2018-02-06T13:36:54.668Z,1001.63
2018-02-06T13:37:54.604Z,1001.64
2018-02-06T13:38:54.536Z,1001.65
2018-02-06T13:39:54.469Z,1001.62
2018-02-06T13:40:54.402Z,1001.59
2018-02-06T13:41:54.336Z,1001.59
2018-02-06T13:42:54.269Z,1001.57
2018-02-06T13:43:54.203Z,1001.56
2018-02-06T13:44:54.135Z,1001.50
2018-02-06T13:45:54.069Z,1001.47
2018-02-06T13:46:54.004Z,1001.47
2018-02-06T13:47:53.934Z,1001.49
2018-02-06T13:48:53.868Z,1001.48
2018-02-06T13:49:53.801Z,1001.46
2018-02-06T13:50:53.742Z,1001.42
2018-02-06T13:51:53.669Z,1001.43
2018-02-06T13:52:53.600Z,1001.44
2018-02-06T13:53:53.534Z,1001.46
2018-02-06T13:54:53.467Z,1001.47
2018-02-06T13:55:53.399Z,1001.45
2018-02-06T13:56:53.335Z,1001.42
2018-02-06T13:57:53.265Z,1001.43
2018-02-06T13:58:53.200Z,1001.39
2018-02-06T13:59:53.131Z,1001.42
2018-02-06T14:00:53.065Z,1001.38
2018-02-06T14:01:53.005Z,1001.36
2018-02-06T14:02:52.931Z,1001.37
2018-02-06T14:03:52.864Z,1001.34
2018-02-06T14:04:52.797Z,1001.33
2018-02-06T14:05:52.730Z,1001.29
2018-02-06T14:06:52.662Z,1001.31
2018-02-06T14:07:52.597Z,1001.28
2018-02-06T14:08:52.530Z,1001.22
2018-02-06T14:09:52.461Z,1001.25
2018-02-06T14:10:52.395Z,1001.21
2018-02-06T14:11:52.327Z,1001.19
2018-02-06T14:12:52.260Z,1001.18
2018-02-06T14:13:52.193Z,1001.18
2018-02-06T14:14:52.126Z,1001.15
2018-02-06T14:15:52.058Z,1001.16
2018-02-06T14:16:51.994Z,1001.19
2018-02-06T14:17:51.925Z,1001.16
2018-02-06T14:18:51.858Z,1001.17
2018-02-06T14:19:51.790Z,1001.14
2018-02-06T14:20:51.721Z,1001.13
2018-02-06T14:21:51.656Z,1001.15
2018-02-06T14:22:51.589Z,1001.13
2018-02-06T14:23:51.523Z,1001.14
2018-02-06T14:24:51.453Z,1001.13
2018-02-06T14:25:51.590Z,1001.13
2018-02-06T14:26:51.321Z,1001.13
2018-02-06T14:27:51.253Z,1001.16
2018-02-06T14:28:51.186Z,1001.14
2018-02-06T14:29:51.119Z,1001.14
2018-02-06T14:30:51.053Z,1001.19
2018-02-06T14:31:50.985Z,1001.16
2018-02-06T14:32:50.918Z,1001.13
2018-02-06T14:33:50.852Z,1001.09
2018-02-06T14:34:50.784Z,1001.09
2018-02-06T14:35:50.717Z,1001.08
2018-02-06T14:36:50.651Z,1001.07